Time;durP1;ratioP1;P1;durP2;ratioP2;P2;SDS_P1;SDS_P2;PMS_P1;PMS_P2;Temp;Humidity;BMP_temperature;BMP_pressure;BME280_temperature;BME280_humidity;BME280_pressure;Samples;Min_cycle;Max_cycle;Signal;HPM_P1;HPM_P2
2024/01/22 05:30:05;;;;;;;2.22;0.93;;;7.80;99.90;;;;;;5736462;22;20483;-66
2024/01/22 05:32:32;;;;;;;1.10;0.70;;;7.90;99.90;;;;;;5017863;28;20403;-66
2024/01/22 05:34:59;;;;;;;1.85;0.75;;;7.90;99.90;;;;;;5023169;28;20431;-65
2024/01/22 05:37:25;;;;;;;1.40;1.00;;;7.90;99.90;;;;;;5025248;28;20426;-69
2024/01/22 05:39:52;;;;;;;3.13;0.87;;;7.90;99.90;;;;;;5024061;28;20532;-67
2024/01/22 05:42:19;;;;;;;1.60;0.80;;;8.00;99.90;;;;;;5025522;28;20437;-67
2024/01/22 05:44:46;;;;;;;1.88;0.75;;;8.10;99.90;;;;;;5024651;28;20424;-67
2024/01/22 05:47:14;;;;;;;1.48;0.80;;;8.20;99.90;;;;;;5026608;28;20411;-67
2024/01/22 05:49:41;;;;;;;1.63;0.50;;;8.30;99.90;;;;;;5023379;28;20422;-68
2024/01/22 05:52:08;;;;;;;1.50;0.60;;;8.40;99.90;;;;;;5024860;28;20459;-69
2024/01/22 05:54:35;;;;;;;0.90;0.50;;;8.40;99.90;;;;;;5024083;28;20428;-67
2024/01/22 05:57:01;;;;;;;1.13;0.50;;;8.40;99.90;;;;;;5024699;28;20422;-67
2024/01/22 05:59:28;;;;;;;0.80;0.50;;;8.50;99.90;;;;;;5024483;28;20425;-65
2024/01/22 06:01:55;;;;;;;1.13;0.60;;;8.70;99.90;;;;;;5024796;28;20440;-66
2024/01/22 06:04:24;;;;;;;1.67;0.50;;;8.80;99.90;;;;;;5023898;28;20420;-66
2024/01/22 06:06:50;;;;;;;1.00;0.50;;;8.80;99.90;;;;;;5023392;28;20423;-68
2024/01/22 06:09:17;;;;;;;1.52;0.50;;;8.90;99.90;;;;;;5025186;28;20933;-66
2024/01/22 06:11:44;;;;;;;1.80;0.50;;;9.00;99.90;;;;;;5025957;28;20528;-66
2024/01/22 06:14:11;;;;;;;0.90;0.40;;;9.10;99.90;;;;;;5024908;28;20419;-65
2024/01/22 06:16:37;;;;;;;2.80;0.50;;;9.10;99.90;;;;;;5031158;28;20431;-68
2024/01/22 06:19:04;;;;;;;0.95;0.50;;;9.30;99.90;;;;;;5048171;28;21000;-71
2024/01/22 06:21:32;;;;;;;1.40;0.50;;;9.50;99.90;;;;;;5051283;28;20429;-67
2024/01/22 06:23:59;;;;;;;1.10;0.50;;;9.60;99.90;;;;;;5047552;28;20413;-68
2024/01/22 06:26:26;;;;;;;1.10;0.40;;;9.70;99.90;;;;;;5049941;28;20441;-68
2024/01/22 06:28:54;;;;;;;0.90;0.35;;;9.70;99.90;;;;;;5049433;28;20787;-69
2024/01/22 06:31:21;;;;;;;1.02;0.50;;;9.70;99.90;;;;;;5049007;28;20429;-68
2024/01/22 06:33:49;;;;;;;0.70;0.40;;;9.70;99.90;;;;;;5049400;28;20686;-68
2024/01/22 06:36:16;;;;;;;1.10;0.40;;;9.70;99.90;;;;;;5043439;28;20421;-67
2024/01/22 06:38:44;;;;;;;1.30;0.45;;;9.80;99.90;;;;;;5049495;28;20413;-68
2024/01/22 06:41:11;;;;;;;1.20;0.40;;;9.80;99.90;;;;;;5049499;28;20566;-68
2024/01/22 06:43:38;;;;;;;0.80;0.40;;;10.00;99.90;;;;;;5048960;28;20432;-68
2024/01/22 06:46:05;;;;;;;1.00;0.50;;;10.00;99.90;;;;;;5049668;28;20428;-69
2024/01/22 06:48:32;;;;;;;1.33;0.60;;;10.00;99.90;;;;;;5048508;28;20452;-69
2024/01/22 06:50:59;;;;;;;1.00;0.40;;;10.00;99.90;;;;;;5041069;28;20405;-68
2024/01/22 06:53:25;;;;;;;0.70;0.30;;;10.00;99.90;;;;;;5049207;28;20436;-68
2024/01/22 06:55:53;;;;;;;0.90;0.50;;;10.10;99.90;;;;;;5048875;28;20424;-68
2024/01/22 06:58:20;;;;;;;1.20;0.40;;;10.20;99.90;;;;;;5048871;28;20428;-68
2024/01/22 07:00:47;;;;;;;0.90;0.40;;;10.20;99.90;;;;;;5048694;28;20504;-68
2024/01/22 07:03:14;;;;;;;1.00;0.40;;;10.20;99.90;;;;;;5048809;28;20429;-67
2024/01/22 07:05:41;;;;;;;1.23;0.47;;;10.20;99.90;;;;;;5048308;28;21067;-67
2024/01/22 07:08:08;;;;;;;0.70;0.40;;;10.30;99.90;;;;;;5049036;28;20838;-66
2024/01/22 07:10:35;;;;;;;0.95;0.40;;;10.40;99.90;;;;;;5049011;28;20870;-69
2024/01/22 07:13:03;;;;;;;0.90;0.40;;;10.40;99.90;;;;;;5049310;28;20412;-69
2024/01/22 07:15:31;;;;;;;0.90;0.40;;;10.50;99.90;;;;;;5049094;28;20487;-68
2024/01/22 07:17:58;;;;;;;0.88;0.47;;;10.40;99.90;;;;;;5048274;28;20413;-68
2024/01/22 07:20:25;;;;;;;0.85;0.47;;;10.50;99.90;;;;;;5050861;28;20413;-68
2024/01/22 07:22:53;;;;;;;1.10;0.60;;;10.60;99.90;;;;;;5049107;28;20516;-67
2024/01/22 07:25:20;;;;;;;1.10;0.50;;;10.60;99.90;;;;;;5048400;28;20413;-66
2024/01/22 07:27:48;;;;;;;1.00;0.50;;;10.70;99.90;;;;;;5047084;28;20416;-67
2024/01/22 07:30:16;;;;;;;1.50;0.50;;;10.70;99.90;;;;;;5045105;28;20421;-67
2024/01/22 07:32:44;;;;;;;1.00;0.40;;;10.80;99.90;;;;;;5049402;28;20424;-68
2024/01/22 07:35:13;;;;;;;1.10;0.50;;;10.80;99.90;;;;;;5048307;28;20409;-68
2024/01/22 07:37:42;;;;;;;1.10;0.50;;;10.80;99.90;;;;;;5048645;28;20449;-68
2024/01/22 07:40:10;;;;;;;1.00;0.50;;;10.80;99.90;;;;;;5048811;28;20456;-67
2024/01/22 07:42:38;;;;;;;1.00;0.50;;;10.80;99.90;;;;;;5048428;28;20940;-66
2024/01/22 07:45:06;;;;;;;0.85;0.43;;;10.90;99.90;;;;;;5048155;28;20425;-68
2024/01/22 07:47:35;;;;;;;1.60;0.50;;;10.90;99.90;;;;;;5044947;28;20414;-68
2024/01/22 07:50:05;;;;;;;0.90;0.50;;;10.90;99.90;;;;;;5040480;28;20869;-69
2024/01/22 07:52:32;;;;;;;1.00;0.60;;;10.90;99.90;;;;;;5045088;28;20978;-68
2024/01/22 07:54:58;;;;;;;0.80;0.50;;;10.90;99.90;;;;;;5047024;28;20513;-68
2024/01/22 07:57:25;;;;;;;1.15;0.45;;;10.90;99.90;;;;;;5050320;28;20420;-69
2024/01/22 07:59:52;;;;;;;0.73;0.40;;;10.90;99.90;;;;;;5048918;28;20787;-69
2024/01/22 08:02:19;;;;;;;0.85;0.40;;;10.90;99.90;;;;;;5048165;28;20432;-68
2024/01/22 08:04:47;;;;;;;1.00;0.40;;;10.90;99.90;;;;;;5048428;28;20414;-68
2024/01/22 08:07:14;;;;;;;1.40;0.40;;;10.80;99.90;;;;;;5048576;28;20436;-68
2024/01/22 08:09:41;;;;;;;1.00;0.50;;;10.80;99.90;;;;;;5048212;28;20467;-69
2024/01/22 08:12:08;;;;;;;1.10;0.40;;;10.80;99.90;;;;;;5048367;28;20902;-69
2024/01/22 08:14:35;;;;;;;1.30;0.50;;;10.80;99.90;;;;;;5048085;28;20413;-68
2024/01/22 08:17:01;;;;;;;1.25;0.50;;;10.80;99.90;;;;;;5051012;28;20409;-68
2024/01/22 08:19:30;;;;;;;0.85;0.40;;;10.80;99.90;;;;;;5054875;28;20413;-68
2024/01/22 08:21:59;;;;;;;1.00;0.50;;;10.80;99.90;;;;;;5051595;28;20801;-68
2024/01/22 08:24:26;;;;;;;1.00;0.50;;;10.80;99.90;;;;;;5047965;28;20504;-67
2024/01/22 08:26:53;;;;;;;0.90;0.40;;;10.80;99.90;;;;;;5054888;28;20413;-68
2024/01/22 08:29:20;;;;;;;0.90;0.40;;;10.80;99.90;;;;;;5056448;28;20413;-67
2024/01/22 08:31:47;;;;;;;0.90;0.40;;;10.80;99.90;;;;;;5059262;28;20583;-67
2024/01/22 08:34:13;;;;;;;1.50;0.50;;;10.80;99.90;;;;;;5058413;28;20417;-67
2024/01/22 08:36:40;;;;;;;1.00;0.50;;;10.80;99.90;;;;;;5060303;28;20424;-67
2024/01/22 08:39:09;;;;;;;1.00;0.40;;;10.80;99.90;;;;;;5059691;28;20486;-67
2024/01/22 08:41:36;;;;;;;1.00;0.40;;;10.80;99.90;;;;;;5059046;28;20495;-67
2024/01/22 08:44:05;;;;;;;0.90;0.50;;;10.80;99.90;;;;;;5055302;28;20425;-67
2024/01/22 08:46:32;;;;;;;0.90;0.45;;;10.80;99.90;;;;;;5051626;28;21155;-68
2024/01/22 08:48:58;;;;;;;1.17;0.60;;;10.70;99.90;;;;;;5050595;28;20425;-67
2024/01/22 08:51:25;;;;;;;1.20;0.50;;;10.70;99.90;;;;;;5049546;28;20417;-68
2024/01/22 08:53:52;;;;;;;1.10;0.70;;;10.80;99.90;;;;;;5050887;28;20416;-68
2024/01/22 08:56:20;;;;;;;1.10;0.50;;;10.80;99.90;;;;;;5051565;28;20421;-68
2024/01/22 08:58:47;;;;;;;1.08;0.60;;;10.80;99.90;;;;;;5050977;28;20448;-67
2024/01/22 09:01:14;;;;;;;0.90;0.50;;;10.70;99.90;;;;;;5054705;28;20458;-68
2024/01/22 09:03:41;;;;;;;1.65;0.70;;;10.80;99.90;;;;;;5052846;28;20429;-68
2024/01/22 09:06:07;;;;;;;1.80;0.60;;;10.80;99.90;;;;;;5049356;28;20436;-68
2024/01/22 09:08:34;;;;;;;1.40;0.60;;;10.80;99.90;;;;;;5051112;28;20404;-68
2024/01/22 09:11:02;;;;;;;2.10;1.30;;;10.80;99.90;;;;;;5043131;28;20501;-68
2024/01/22 09:13:30;;;;;;;1.20;0.60;;;10.90;99.90;;;;;;5049687;28;20514;-68
2024/01/22 09:15:57;;;;;;;1.60;0.50;;;10.90;99.90;;;;;;5055780;28;20479;-68
2024/01/22 09:18:24;;;;;;;2.30;0.70;;;10.90;99.90;;;;;;5050381;28;20416;-68
2024/01/22 09:20:52;;;;;;;1.23;0.70;;;10.90;99.90;;;;;;5047286;28;20448;-68
2024/01/22 09:23:18;;;;;;;2.03;0.90;;;10.90;99.90;;;;;;5050076;28;20421;-68
2024/01/22 09:25:45;;;;;;;1.40;0.63;;;11.00;99.90;;;;;;5046872;28;20440;-68
2024/01/22 09:28:14;;;;;;;1.50;1.00;;;11.00;99.90;;;;;;5040978;28;20417;-68
2024/01/22 09:30:42;;;;;;;1.50;0.80;;;11.10;99.90;;;;;;5045969;28;20421;-68
2024/01/22 09:33:09;;;;;;;2.80;0.70;;;11.20;99.90;;;;;;5042412;28;20406;-68
2024/01/22 09:35:36;;;;;;;2.13;0.90;;;11.20;99.90;;;;;;5047838;28;20470;-68
2024/01/22 09:38:04;;;;;;;2.13;0.90;;;11.30;99.90;;;;;;5039570;28;20865;-68
2024/01/22 09:40:34;;;;;;;4.53;1.50;;;11.40;99.90;;;;;;5049997;28;20442;-68
2024/01/22 09:43:04;;;;;;;2.13;1.00;;;11.60;99.90;;;;;;5045441;28;20457;-68
2024/01/22 09:45:31;;;;;;;4.75;1.50;;;11.80;99.90;;;;;;5049827;28;20503;-68
2024/01/22 09:48:00;;;;;;;4.18;1.45;;;11.90;99.90;;;;;;5042264;28;20433;-68
2024/01/22 09:50:28;;;;;;;4.55;1.40;;;12.00;99.90;;;;;;5047374;28;20405;-68
2024/01/22 09:53:00;;;;;;;4.30;1.50;;;12.20;99.90;;;;;;5046738;28;20434;-67
2024/01/22 09:55:27;;;;;;;4.00;1.15;;;12.30;99.90;;;;;;5041949;28;20407;-67
2024/01/22 09:57:59;;;;;;;3.17;1.10;;;12.20;99.90;;;;;;5051182;28;20414;-71
2024/01/22 10:00:27;;;;;;;2.90;1.10;;;12.20;99.90;;;;;;5040249;28;20505;-70
2024/01/22 10:02:55;;;;;;;4.45;1.30;;;12.30;99.90;;;;;;5048535;28;20459;-70
2024/01/22 10:05:23;;;;;;;2.60;1.20;;;12.30;99.90;;;;;;5043804;28;20409;-70
2024/01/22 10:07:50;;;;;;;5.50;2.35;;;12.20;99.90;;;;;;5044472;28;20449;-70
2024/01/22 10:10:17;;;;;;;2.13;1.20;;;12.20;99.90;;;;;;5042194;28;20437;-69
2024/01/22 10:13:00;;;;;;;3.05;1.20;;;12.20;99.90;;;;;;5041676;28;20420;-68
2024/01/22 10:15:28;;;;;;;3.85;1.10;;;12.20;99.90;;;;;;5048456;28;20428;-70
2024/01/22 10:18:06;;;;;;;2.30;1.00;;;12.10;99.90;;;;;;5044303;28;20441;-69
2024/01/22 10:20:34;;;;;;;1.90;0.80;;;12.10;99.90;;;;;;5046906;28;20417;-69
2024/01/22 10:23:01;;;;;;;2.58;0.98;;;12.00;99.90;;;;;;5042157;28;20438;-68
2024/01/22 10:25:29;;;;;;;1.50;0.90;;;12.00;99.90;;;;;;5044903;28;20418;-68
2024/01/22 10:28:08;;;;;;;1.65;0.68;;;11.90;99.90;;;;;;5049412;28;20413;-68
2024/01/22 10:30:37;;;;;;;1.60;0.40;;;11.90;99.90;;;;;;5041243;28;20417;-69
2024/01/22 10:33:11;;;;;;;1.13;0.50;;;11.90;99.90;;;;;;5041732;28;20416;-69
2024/01/22 10:35:40;;;;;;;1.00;0.40;;;11.80;99.90;;;;;;5045402;28;20413;-69
2024/01/22 10:38:08;;;;;;;1.07;0.47;;;11.80;99.90;;;;;;5035753;28;20415;-69
2024/01/22 10:40:35;;;;;;;0.80;0.40;;;11.80;99.90;;;;;;5064143;22;20425;-67
2024/01/22 10:43:21;;;;;;;0.90;0.40;;;11.80;99.90;;;;;;5048280;28;20437;-67
2024/01/22 10:45:49;;;;;;;1.30;0.50;;;11.80;99.90;;;;;;5051711;28;20955;-67
2024/01/22 10:48:19;;;;;;;1.17;0.50;;;11.80;99.90;;;;;;5052773;28;20832;-67
2024/01/22 10:50:48;;;;;;;1.90;0.40;;;11.80;99.90;;;;;;5050762;28;20523;-67
2024/01/22 10:53:16;;;;;;;0.90;0.40;;;11.70;99.90;;;;;;5041246;28;20420;-67
2024/01/22 10:55:49;;;;;;;0.80;0.30;;;11.70;99.90;;;;;;5043518;28;20801;-67
2024/01/22 10:58:26;;;;;;;1.00;0.50;;;11.70;99.90;;;;;;5045419;28;20417;-68
2024/01/22 11:00:55;;;;;;;0.80;0.40;;;11.60;99.90;;;;;;5044668;28;20789;-67
2024/01/22 11:03:26;;;;;;;0.90;0.40;;;11.60;99.90;;;;;;5039739;28;20429;-68
2024/01/22 11:05:57;;;;;;;1.10;0.40;;;11.60;99.90;;;;;;5045436;28;20428;-67
2024/01/22 11:08:27;;;;;;;2.30;0.63;;;11.60;99.90;;;;;;5041500;28;20459;-67
2024/01/22 11:10:56;;;;;;;0.80;0.40;;;11.60;99.90;;;;;;5041119;28;20437;-67
2024/01/22 11:13:23;;;;;;;1.00;0.40;;;11.50;99.90;;;;;;5044025;28;20409;-66
2024/01/22 11:15:50;;;;;;;1.10;0.40;;;11.50;99.90;;;;;;5043950;28;20875;-67
2024/01/22 11:18:17;;;;;;;0.80;0.40;;;11.50;99.90;;;;;;5043410;28;20428;-67
2024/01/22 11:20:43;;;;;;;2.60;0.50;;;11.50;99.90;;;;;;5042356;28;20438;-67
2024/01/22 11:23:16;;;;;;;0.80;0.40;;;11.50;99.90;;;;;;5041420;28;20971;-67
2024/01/22 11:25:43;;;;;;;1.10;0.40;;;11.60;99.90;;;;;;5039240;28;20413;-67
2024/01/22 11:28:12;;;;;;;1.70;0.50;;;11.50;99.90;;;;;;5042956;28;20421;-67
2024/01/22 11:30:41;;;;;;;0.90;0.40;;;11.50;99.90;;;;;;5051225;28;20812;-66
2024/01/22 11:33:30;;;;;;;0.95;0.40;;;11.50;99.90;;;;;;5050185;28;20413;-68
2024/01/22 11:35:57;;;;;;;1.00;0.40;;;11.50;99.90;;;;;;5039252;28;20421;-68
2024/01/22 11:38:53;;;;;;;0.80;0.40;;;11.50;99.90;;;;;;5043728;28;20766;-68
2024/01/22 11:41:31;;;;;;;0.80;0.40;;;11.50;99.90;;;;;;5037979;28;20899;-75
2024/01/22 11:43:57;;;;;;;0.90;0.40;;;11.50;99.90;;;;;;5041391;28;20504;-69
2024/01/22 11:46:24;;;;;;;0.80;0.40;;;11.50;99.90;;;;;;5050108;28;20417;-68
2024/01/22 11:48:53;;;;;;;0.77;0.38;;;11.50;99.90;;;;;;5043615;28;20444;-68
2024/01/22 11:51:25;;;;;;;1.30;0.50;;;11.50;99.90;;;;;;5044398;28;20578;-68
2024/01/22 11:53:56;;;;;;;1.15;0.40;;;11.40;99.90;;;;;;5044657;28;20541;-68
2024/01/22 11:56:23;;;;;;;1.20;0.50;;;11.50;99.90;;;;;;5044304;28;20479;-69
2024/01/22 11:58:52;;;;;;;1.20;0.60;;;11.50;99.90;;;;;;5041763;28;20879;-68
2024/01/22 12:01:20;;;;;;;1.20;0.60;;;11.50;99.90;;;;;;5044528;28;20433;-69
2024/01/22 12:03:47;;;;;;;1.10;0.50;;;11.50;99.90;;;;;;5040770;28;20867;-68
2024/01/22 12:06:13;;;;;;;1.30;0.70;;;11.50;99.90;;;;;;5042362;28;20477;-68
2024/01/22 12:08:40;;;;;;;1.80;0.60;;;11.50;99.90;;;;;;5044090;28;20740;-68
2024/01/22 12:11:10;;;;;;;3.10;0.90;;;11.50;99.90;;;;;;5044208;28;20879;-68
2024/01/22 12:13:38;;;;;;;1.88;0.80;;;11.60;99.90;;;;;;5045406;28;20407;-68
2024/01/22 12:16:05;;;;;;;2.47;1.20;;;11.70;99.90;;;;;;5041562;28;20416;-67
2024/01/22 12:18:32;;;;;;;3.10;0.90;;;11.70;99.90;;;;;;5044194;28;20417;-69
2024/01/22 12:20:58;;;;;;;3.53;1.00;;;11.70;99.90;;;;;;5043937;28;20607;-69
2024/01/22 12:23:29;;;;;;;3.67;1.30;;;11.80;99.90;;;;;;5043289;28;20521;-68
2024/01/22 12:25:56;;;;;;;3.30;1.17;;;11.80;99.90;;;;;;5045062;28;20425;-69
2024/01/22 12:28:25;;;;;;;3.00;1.10;;;11.80;99.90;;;;;;5042993;28;20512;-69
2024/01/22 12:30:59;;;;;;;4.10;1.90;;;11.50;99.90;;;;;;5042070;28;20456;-68
2024/01/22 12:33:27;;;;;;;3.60;1.30;;;11.10;99.90;;;;;;5041890;28;20483;-68
2024/01/22 12:36:08;;;;;;;3.28;1.30;;;10.70;99.90;;;;;;5047672;28;20449;-68
2024/01/22 12:38:38;;;;;;;3.58;1.60;;;10.50;99.90;;;;;;5043091;28;20429;-69
2024/01/22 12:41:08;;;;;;;6.63;2.00;;;10.40;99.90;;;;;;5047959;28;20439;-67
2024/01/22 12:43:38;;;;;;;3.83;1.90;;;10.30;99.90;;;;;;5045306;28;20437;-67
2024/01/22 12:46:09;;;;;;;3.90;1.20;;;10.20;99.90;;;;;;5050005;28;20527;-67
2024/01/22 12:48:36;;;;;;;4.00;1.20;;;10.20;99.90;;;;;;5047225;28;20502;-67
2024/01/22 12:51:03;;;;;;;3.85;1.48;;;10.50;99.90;;;;;;5042482;28;20875;-67
2024/01/22 12:53:30;;;;;;;3.95;1.30;;;10.90;99.90;;;;;;5048986;28;20417;-67
2024/01/22 12:55:57;;;;;;;3.17;1.05;;;11.10;99.90;;;;;;5048262;28;20413;-67
2024/01/22 12:58:25;;;;;;;3.65;1.25;;;11.20;99.90;;;;;;5045338;28;20440;-68
2024/01/22 13:00:55;;;;;;;3.92;1.60;;;11.50;99.90;;;;;;5047067;28;20491;-68
2024/01/22 13:03:22;;;;;;;3.38;1.33;;;11.80;99.90;;;;;;5046764;28;20721;-68
2024/01/22 13:05:49;;;;;;;4.88;1.70;;;12.10;99.90;;;;;;5043670;28;20437;-68
2024/01/22 13:08:15;;;;;;;7.53;1.88;;;12.50;99.90;;;;;;5044819;28;20444;-68
2024/01/22 13:10:43;;;;;;;10.70;5.50;;;13.10;99.90;;;;;;5046021;28;20421;-67
2024/01/22 13:13:11;;;;;;;2.93;1.30;;;13.20;99.90;;;;;;5045403;28;20461;-67
2024/01/22 13:15:38;;;;;;;6.82;2.10;;;12.90;99.90;;;;;;5044467;28;20443;-68
2024/01/22 13:18:06;;;;;;;5.15;1.73;;;12.90;99.90;;;;;;5043004;28;20425;-68
2024/01/22 13:20:33;;;;;;;5.53;1.98;;;13.10;99.90;;;;;;5046223;28;20428;-68
2024/01/22 13:22:59;;;;;;;6.30;1.80;;;13.30;99.90;;;;;;5042164;28;20425;-68
2024/01/22 13:25:28;;;;;;;7.18;2.03;;;13.40;99.90;;;;;;5045983;28;20425;-68
2024/01/22 13:27:55;;;;;;;5.40;1.90;;;13.30;99.90;;;;;;5044750;28;20547;-67
2024/01/22 13:30:22;;;;;;;7.00;2.20;;;13.30;99.90;;;;;;5042160;28;20488;-68
2024/01/22 13:32:49;;;;;;;7.05;2.03;;;13.00;99.90;;;;;;5045873;28;20439;-67
2024/01/22 13:35:17;;;;;;;5.38;1.98;;;12.80;99.90;;;;;;5042088;28;20432;-66
2024/01/22 13:37:44;;;;;;;6.30;2.15;;;12.50;99.90;;;;;;5039219;28;20908;-66
2024/01/22 13:40:12;;;;;;;6.22;2.15;;;12.20;99.90;;;;;;5042873;28;20501;-67
2024/01/22 13:42:39;;;;;;;4.97;1.70;;;12.00;99.90;;;;;;5045185;28;20417;-68
2024/01/22 13:45:07;;;;;;;4.82;1.58;;;11.80;99.90;;;;;;5046326;28;20440;-67
2024/01/22 13:47:34;;;;;;;4.70;1.40;;;11.70;99.90;;;;;;5046006;28;20421;-67
2024/01/22 13:50:02;;;;;;;3.75;0.90;;;11.20;99.90;;;;;;5041210;28;20532;-67
2024/01/22 13:52:30;;;;;;;4.00;1.10;;;10.90;96.60;;;;;;5046076;28;20916;-67
2024/01/22 13:54:58;;;;;;;2.30;1.00;;;10.60;98.70;;;;;;5044325;28;20433;-68
2024/01/22 13:57:24;;;;;;;4.20;1.13;;;10.40;98.70;;;;;;5045137;28;20449;-67
2024/01/22 13:59:51;;;;;;;4.30;1.10;;;10.50;97.40;;;;;;5046419;28;20413;-68
2024/01/22 14:02:18;;;;;;;3.00;1.10;;;10.80;97.40;;;;;;5038820;28;20436;-68
2024/01/22 14:04:44;;;;;;;2.70;0.90;;;11.00;96.80;;;;;;5045272;28;20749;-68
2024/01/22 14:07:12;;;;;;;3.47;0.90;;;11.20;96.40;;;;;;5046124;28;20418;-68
2024/01/22 14:09:40;;;;;;;2.28;1.00;;;11.30;95.40;;;;;;5045060;28;20863;-68
2024/01/22 14:12:08;;;;;;;4.80;1.17;;;11.30;96.60;;;;;;5039467;28;20409;-68
2024/01/22 14:14:34;;;;;;;4.25;1.10;;;11.30;97.60;;;;;;5036891;28;20799;-68
2024/01/22 14:17:02;;;;;;;2.97;1.15;;;11.30;98.30;;;;;;5040973;28;20441;-67
2024/01/22 14:19:30;;;;;;;3.83;1.40;;;11.40;99.70;;;;;;5043536;28;20413;-69
2024/01/22 14:21:57;;;;;;;4.03;1.30;;;11.40;99.90;;;;;;5040009;28;20860;-69
2024/01/22 14:24:24;;;;;;;5.80;1.60;;;11.40;99.90;;;;;;5043725;28;20440;-69
2024/01/22 14:26:52;;;;;;;5.60;2.10;;;11.40;99.90;;;;;;5045887;28;20470;-69
2024/01/22 14:29:19;;;;;;;4.80;1.80;;;11.40;99.90;;;;;;5041247;28;20439;-69
2024/01/22 14:31:46;;;;;;;5.53;1.63;;;11.50;99.90;;;;;;5046835;28;20521;-69
2024/01/22 14:34:13;;;;;;;6.95;2.67;;;11.50;99.90;;;;;;5048181;28;20421;-69
2024/01/22 14:36:41;;;;;;;6.65;1.70;;;11.60;99.90;;;;;;5049091;28;20432;-69
2024/01/22 14:39:10;;;;;;;7.57;2.58;;;11.70;99.90;;;;;;5038217;28;20432;-69
2024/01/22 14:41:37;;;;;;;5.40;2.05;;;11.80;99.90;;;;;;5039528;28;20431;-72
2024/01/22 14:44:05;;;;;;;7.45;2.20;;;11.70;99.90;;;;;;5045337;28;20441;-68
2024/01/22 14:46:32;;;;;;;7.20;2.40;;;11.60;99.90;;;;;;5045314;28;20417;-69
2024/01/22 14:48:59;;;;;;;6.78;2.30;;;11.60;99.90;;;;;;5045426;28;20429;-69
2024/01/22 14:51:27;;;;;;;10.20;3.80;;;11.50;99.90;;;;;;5032403;28;20865;-68
2024/01/22 14:53:54;;;;;;;7.70;2.78;;;11.50;99.90;;;;;;5044661;28;20409;-69
2024/01/22 14:56:20;;;;;;;8.77;2.50;;;11.50;99.90;;;;;;5045032;28;20416;-68
2024/01/22 14:58:47;;;;;;;8.00;2.70;;;11.50;99.90;;;;;;5045720;28;20409;-69
2024/01/22 15:01:15;;;;;;;11.07;3.28;;;11.50;99.90;;;;;;5044902;28;20424;-69
2024/01/22 15:03:42;;;;;;;7.60;3.33;;;11.50;99.60;;;;;;5038875;28;20512;-72
2024/01/22 15:06:09;;;;;;;9.70;2.75;;;11.50;99.90;;;;;;5038820;28;20436;-68
2024/01/22 15:08:36;;;;;;;9.45;2.70;;;11.60;98.40;;;;;;5043122;28;20516;-69
2024/01/22 15:11:03;;;;;;;8.23;2.80;;;11.60;98.50;;;;;;5043336;28;20418;-68
2024/01/22 15:13:29;;;;;;;11.53;3.50;;;11.60;98.10;;;;;;5037850;28;20952;-69
2024/01/22 15:15:56;;;;;;;8.73;2.90;;;11.50;98.20;;;;;;5057058;28;20963;-67
2024/01/22 15:18:24;;;;;;;8.33;2.70;;;11.40;98.40;;;;;;5048868;28;20501;-68
2024/01/22 15:20:51;;;;;;;9.70;3.40;;;11.30;98.90;;;;;;5046932;28;20424;-68
2024/01/22 15:23:18;;;;;;;8.02;2.60;;;11.20;98.50;;;;;;5047746;28;21820;-67
2024/01/22 15:25:44;;;;;;;9.02;2.50;;;11.00;98.80;;;;;;5043529;28;20476;-67
2024/01/22 15:28:11;;;;;;;8.82;2.85;;;11.00;99.40;;;;;;5045773;28;20417;-67
2024/01/22 15:30:38;;;;;;;8.40;2.50;;;10.90;99.90;;;;;;5043518;28;20437;-67
2024/01/22 15:33:05;;;;;;;9.05;2.60;;;10.80;99.40;;;;;;5047003;28;20428;-67
2024/01/22 15:35:33;;;;;;;7.03;2.35;;;10.70;99.80;;;;;;5048140;28;20419;-68
2024/01/22 15:38:00;;;;;;;8.70;2.97;;;10.60;99.90;;;;;;5038060;28;20799;-68
2024/01/22 15:40:27;;;;;;;8.75;3.22;;;10.50;99.90;;;;;;5046164;28;20421;-68
2024/01/22 15:42:53;;;;;;;13.25;3.30;;;10.50;99.90;;;;;;5045090;28;20417;-68
2024/01/22 15:45:20;;;;;;;9.25;3.38;;;10.40;99.90;;;;;;5042695;28;20847;-68
2024/01/22 15:47:47;;;;;;;9.82;2.92;;;10.40;99.90;;;;;;5048889;28;20516;-68
2024/01/22 15:50:15;;;;;;;9.07;2.90;;;10.40;99.90;;;;;;5046257;28;20417;-68
2024/01/22 15:52:43;;;;;;;8.30;2.60;;;10.40;99.90;;;;;;5043401;28;20425;-68
2024/01/22 15:55:11;;;;;;;9.85;3.17;;;10.40;99.90;;;;;;5039169;28;21046;-68
2024/01/22 15:57:38;;;;;;;7.67;2.50;;;10.40;99.90;;;;;;5040551;28;20421;-67
2024/01/22 16:00:06;;;;;;;7.68;2.90;;;10.40;99.90;;;;;;5043160;28;20436;-67
2024/01/22 16:02:32;;;;;;;10.30;2.75;;;10.30;99.90;;;;;;5044284;28;20401;-68
2024/01/22 16:04:59;;;;;;;10.77;3.40;;;10.20;99.90;;;;;;5044081;28;20460;-68
2024/01/22 16:07:26;;;;;;;9.32;3.35;;;10.20;99.90;;;;;;5044206;28;20409;-68
2024/01/22 16:09:54;;;;;;;9.40;3.00;;;10.20;99.90;;;;;;5038221;28;20417;-68
2024/01/22 16:12:21;;;;;;;10.48;3.25;;;10.10;99.90;;;;;;5032213;28;20418;-68
2024/01/22 16:14:48;;;;;;;7.50;3.10;;;10.10;99.90;;;;;;5050901;28;20921;-68
2024/01/22 16:17:15;;;;;;;11.17;3.60;;;10.10;99.90;;;;;;5050301;28;20447;-68
2024/01/22 16:19:42;;;;;;;8.67;3.10;;;10.00;99.90;;;;;;5024384;28;20511;-69
2024/01/22 16:22:09;;;;;;;11.52;3.20;;;10.00;99.90;;;;;;5020928;28;20416;-72
2024/01/22 16:24:36;;;;;;;10.15;3.45;;;10.00;99.90;;;;;;5015502;28;20432;-69
2024/01/22 16:27:04;;;;;;;7.43;3.13;;;9.90;99.90;;;;;;5018901;28;20489;-68
2024/01/22 16:29:31;;;;;;;8.20;3.50;;;9.90;99.90;;;;;;5022728;28;20436;-69
2024/01/22 16:31:57;;;;;;;10.60;4.05;;;9.90;99.90;;;;;;5020616;28;20458;-69
2024/01/22 16:34:24;;;;;;;9.25;3.60;;;9.80;99.90;;;;;;5023295;28;20412;-69
2024/01/22 16:36:51;;;;;;;9.77;4.13;;;9.70;99.90;;;;;;5046971;28;20425;-68
2024/01/22 16:39:19;;;;;;;9.30;3.70;;;9.70;99.90;;;;;;5061725;28;20503;-68
2024/01/22 16:41:46;;;;;;;10.88;3.70;;;9.60;99.90;;;;;;5077526;22;20472;-73
2024/01/22 16:44:17;;;;;;;7.85;2.97;;;9.50;99.90;;;;;;5044989;28;20433;-76
2024/01/22 16:46:44;;;;;;;9.75;3.40;;;9.50;99.90;;;;;;5062518;28;20920;-77
2024/01/22 16:49:11;;;;;;;9.02;3.47;;;9.40;99.90;;;;;;5055087;28;20420;-75
2024/01/22 16:51:38;;;;;;;9.85;3.10;;;9.30;99.90;;;;;;5052098;28;20417;-77
2024/01/22 16:54:05;;;;;;;11.93;4.28;;;9.30;99.90;;;;;;5063669;28;20413;-75
2024/01/22 16:56:32;;;;;;;9.43;3.10;;;9.30;99.90;;;;;;5054127;28;20495;-76
2024/01/22 16:59:00;;;;;;;9.03;3.50;;;9.30;99.90;;;;;;5054858;28;20452;-77
2024/01/22 17:01:29;;;;;;;10.40;3.10;;;9.20;99.90;;;;;;5055297;28;20421;-77
2024/01/22 17:03:56;;;;;;;9.32;3.20;;;9.10;99.90;;;;;;5058058;28;20423;-79
2024/01/22 17:06:23;;;;;;;10.10;3.38;;;9.10;99.90;;;;;;5077460;28;20427;-77
2024/01/22 17:08:51;;;;;;;8.70;3.33;;;9.10;99.90;;;;;;5065070;28;20413;-77
2024/01/22 17:11:18;;;;;;;8.30;2.60;;;9.10;99.90;;;;;;5055580;28;20444;-78
2024/01/22 17:13:44;;;;;;;7.35;2.70;;;9.10;99.90;;;;;;5053413;28;20904;-78
2024/01/22 17:16:11;;;;;;;9.50;2.67;;;9.10;99.90;;;;;;5056370;28;20408;-78
2024/01/22 17:18:40;;;;;;;7.97;3.70;;;9.10;99.90;;;;;;5058062;28;20415;-77
2024/01/22 17:21:07;;;;;;;7.25;2.70;;;9.10;99.90;;;;;;5052904;28;20409;-77
2024/01/22 17:23:37;;;;;;;7.27;2.53;;;9.10;99.90;;;;;;5052820;28;20414;-78
2024/01/22 17:26:08;;;;;;;10.80;2.95;;;9.10;99.90;;;;;;5061362;28;21080;-77
2024/01/22 17:28:35;;;;;;;8.43;2.78;;;9.00;99.90;;;;;;5051070;28;20504;-77
2024/01/22 17:31:01;;;;;;;7.93;2.60;;;9.10;99.90;;;;;;5038447;28;20526;-78
2024/01/22 17:33:28;;;;;;;6.72;2.47;;;9.10;99.90;;;;;;5048448;28;20436;-78
2024/01/22 17:35:56;;;;;;;8.80;3.38;;;9.10;99.90;;;;;;5055775;28;20414;-78
2024/01/22 17:38:23;;;;;;;12.10;2.70;;;9.10;99.90;;;;;;5053765;28;20417;-78
2024/01/22 17:40:50;;;;;;;9.30;3.00;;;9.10;99.90;;;;;;5049728;28;20440;-79
2024/01/22 17:43:17;;;;;;;8.60;2.80;;;9.10;99.90;;;;;;5052882;28;20460;-78
2024/01/22 17:45:44;;;;;;;8.03;2.60;;;9.00;99.90;;;;;;5058478;28;20425;-79
2024/01/22 17:48:11;;;;;;;10.30;2.90;;;9.10;99.90;;;;;;5070212;28;20508;-78
2024/01/22 17:50:38;;;;;;;8.45;3.20;;;9.10;99.90;;;;;;5059243;28;20425;-78
2024/01/22 17:53:06;;;;;;;10.13;3.10;;;9.10;99.90;;;;;;5059481;28;20423;-78
2024/01/22 17:55:33;;;;;;;8.07;2.77;;;9.10;99.90;;;;;;5049053;28;20935;-80
2024/01/22 17:58:00;;;;;;;9.82;3.10;;;9.20;99.90;;;;;;5055596;28;20417;-80
2024/01/22 18:00:27;;;;;;;8.02;2.60;;;9.10;99.90;;;;;;5075005;28;20472;-79
2024/01/22 18:02:54;;;;;;;9.27;2.90;;;9.20;99.90;;;;;;5058702;28;21003;-78
2024/01/22 18:05:21;;;;;;;10.15;3.42;;;9.10;99.90;;;;;;5057278;28;21039;-80
2024/01/22 18:07:47;;;;;;;8.23;2.90;;;9.10;99.90;;;;;;5048504;28;20409;-79
2024/01/22 18:10:16;;;;;;;10.37;3.27;;;9.20;99.90;;;;;;5049246;28;20527;-81
2024/01/22 18:12:44;;;;;;;11.95;3.70;;;9.10;99.90;;;;;;5051727;28;20433;-79
2024/01/22 18:15:11;;;;;;;10.90;3.15;;;9.10;99.90;;;;;;5054391;28;20441;-78
2024/01/22 18:17:38;;;;;;;11.80;3.35;;;9.10;99.90;;;;;;5050398;28;20766;-79
2024/01/22 18:20:06;;;;;;;12.45;3.50;;;9.10;99.90;;;;;;5048595;28;20417;-79